Time;durP1;ratioP1;P1;durP2;ratioP2;P2;SDS_P1;SDS_P2;PMS_P1;PMS_P2;Temp;Humidity;BMP_temperature;BMP_pressure;BME280_temperature;BME280_humidity;BME280_pressure;Samples;Min_cycle;Max_cycle;Signal;HPM_P1;HPM_P2
2021/12/20 00:02:22;;;;;;;10.20;2.67;;;;;;;6.07;100.00;102833.81;5093973;28;20044;-36
2021/12/20 00:04:51;;;;;;;7.85;2.60;;;;;;;6.07;100.00;102828.44;5094263;28;20054;-35
2021/12/20 00:07:17;;;;;;;9.82;3.13;;;;;;;6.05;100.00;102820.53;5093872;28;20460;-35
2021/12/20 00:09:42;;;;;;;9.10;2.40;;;;;;;6.10;100.00;102837.03;5093741;28;20047;-35
2021/12/20 00:12:08;;;;;;;7.50;2.37;;;;;;;5.98;100.00;102819.44;5093683;28;20032;-35
2021/12/20 00:14:33;;;;;;;8.10;2.88;;;;;;;5.96;100.00;102820.63;5094066;28;20028;-35
2021/12/20 00:16:58;;;;;;;7.23;2.33;;;;;;;6.05;100.00;102830.41;5093294;28;20457;-35
2021/12/20 00:19:25;;;;;;;11.10;2.40;;;;;;;6.06;100.00;102818.69;5094202;28;20174;-35
2021/12/20 00:21:51;;;;;;;9.10;2.25;;;;;;;6.05;100.00;102825.03;5126320;27;20384;-35
2021/12/20 00:24:18;;;;;;;7.87;2.10;;;;;;;6.06;100.00;102826.75;5093201;28;20024;-35
2021/12/20 00:26:44;;;;;;;8.77;2.33;;;;;;;6.03;100.00;102829.75;5093261;28;20032;-35
2021/12/20 00:29:09;;;;;;;7.97;2.43;;;;;;;6.05;100.00;102825.03;5093642;28;20028;-35
2021/12/20 00:31:34;;;;;;;12.17;2.37;;;;;;;5.87;100.00;102801.69;5093014;28;20104;-35
2021/12/20 00:34:00;;;;;;;11.77;2.33;;;;;;;6.03;100.00;102827.91;5093234;28;20020;-35
2021/12/20 00:36:27;;;;;;;6.43;1.70;;;;;;;6.09;100.00;102821.91;5093000;28;20073;-35
2021/12/20 00:41:36;;;;;;;9.95;2.22;;;;;;;6.02;100.00;102817.31;5092997;28;20141;-35
2021/12/20 00:44:02;;;;;;;9.40;2.53;;;;;;;6.00;100.00;102819.28;5093356;28;20131;-35
2021/12/20 00:46:28;;;;;;;11.50;2.85;;;;;;;5.97;100.00;102822.31;5093448;28;20459;-35
2021/12/20 00:48:54;;;;;;;10.95;2.65;;;;;;;5.98;100.00;102823.97;5093736;28;20028;-36
2021/12/20 00:51:19;;;;;;;13.85;3.05;;;;;;;5.91;100.00;102812.97;5092711;28;20188;-35
2021/12/20 00:53:45;;;;;;;10.17;2.17;;;;;;;6.01;100.00;102813.78;5093758;28;20024;-35
2021/12/20 00:56:10;;;;;;;12.37;3.13;;;;;;;5.97;100.00;102816.94;5093233;28;20024;-35
2021/12/20 00:58:36;;;;;;;9.17;2.33;;;;;;;6.00;100.00;102824.66;5092682;28;20286;-36
2021/12/20 01:01:02;;;;;;;13.43;2.23;;;;;;;5.90;99.75;102816.63;5093392;28;20044;-35
2021/12/20 01:03:30;;;;;;;16.77;2.83;;;;;;;5.88;97.60;102819.50;5093196;28;20044;-36
2021/12/20 01:05:56;;;;;;;14.10;2.70;;;;;;;5.81;96.54;102806.84;5092894;28;20024;-35
2021/12/20 01:08:22;;;;;;;13.98;2.45;;;;;;;5.83;98.16;102802.16;5093384;28;20167;-35
2021/12/20 01:10:54;;;;;;;12.63;3.42;;;;;;;5.93;97.70;102822.59;5093056;28;20138;-36
2021/12/20 01:13:23;;;;;;;14.07;3.10;;;;;;;5.96;97.70;102828.69;5092529;28;20020;-35
2021/12/20 01:15:52;;;;;;;21.80;4.20;;;;;;;5.89;97.39;102821.16;5092987;28;20060;-36
2021/12/20 01:18:19;;;;;;;12.90;2.95;;;;;;;5.73;97.52;102791.47;5092976;28;20121;-35
2021/12/20 01:20:44;;;;;;;12.98;3.20;;;;;;;5.88;97.26;102818.66;5092915;28;20181;-36
2021/12/20 01:23:11;;;;;;;13.20;2.50;;;;;;;5.92;98.21;102817.38;5092639;28;20107;-35
2021/12/20 01:25:37;;;;;;;16.98;3.40;;;;;;;5.88;96.61;102822.16;5092443;28;20020;-36
2021/12/20 01:28:04;;;;;;;15.63;3.42;;;;;;;5.88;98.30;102824.84;5093257;28;20036;-35
2021/12/20 01:30:30;;;;;;;18.20;5.10;;;;;;;5.81;97.90;102802.31;5093087;28;20032;-35
2021/12/20 01:32:55;;;;;;;14.83;2.77;;;;;;;5.86;97.22;102810.75;5093066;28;20024;-35
2021/12/20 01:35:23;;;;;;;12.20;2.75;;;;;;;5.86;97.53;102813.44;5092678;28;20036;-35
2021/12/20 01:37:49;;;;;;;14.50;3.22;;;;;;;5.88;97.05;102819.50;5093040;28;20032;-35
2021/12/20 01:40:16;;;;;;;16.10;3.70;;;;;;;5.82;97.04;102817.41;5092333;28;20059;-35
2021/12/20 01:42:42;;;;;;;20.98;4.55;;;;;;;5.85;96.52;102813.56;5095052;28;20048;-35
2021/12/20 01:45:12;;;;;;;;;;;;;;;5.90;97.20;102809.47;5096665;28;20062;-35
2021/12/20 01:47:42;;;;;;;12.20;3.47;;;;;;;5.87;96.47;102807.06;5096584;28;19908;-35
2021/12/20 01:50:24;;;;;;;13.77;2.78;;;;;;;5.83;94.22;102805.69;5096411;28;20024;-35
2021/12/20 01:52:49;;;;;;;11.90;3.22;;;;;;;5.87;95.05;102803.53;5096229;28;20028;-35
2021/12/20 01:55:19;;;;;;;10.80;2.73;;;;;;;5.88;95.80;102814.13;5096838;28;20054;-35
2021/12/20 01:57:46;;;;;;;17.83;3.10;;;;;;;5.85;95.43;102808.19;5096656;28;20461;-35
2021/12/20 02:00:14;;;;;;;;;;;;;;;5.93;97.11;102811.84;5096227;28;20024;-35
2021/12/20 02:02:42;;;;;;;8.35;1.95;;;;;;;5.90;97.13;102805.91;5096267;28;20341;-36
2021/12/20 02:05:20;;;;;;;15.05;2.85;;;;;;;5.86;95.34;102800.00;5096118;28;20036;-36
2021/12/20 02:07:59;;;;;;;15.93;3.15;;;;;;;5.84;94.40;102795.78;5096468;28;20028;-35
2021/12/20 02:10:25;;;;;;;18.13;2.70;;;;;;;5.79;94.09;102809.66;5096301;28;20058;-35
2021/12/20 02:12:50;;;;;;;16.67;3.75;;;;;;;5.68;93.93;102780.34;5095930;28;20380;-35
2021/12/20 02:15:16;;;;;;;14.43;3.27;;;;;;;5.83;94.84;102803.00;5095936;28;20024;-35
2021/12/20 02:17:42;;;;;;;14.48;3.30;;;;;;;5.75;95.37;102792.16;5095815;28;20073;-35
2021/12/20 02:20:08;;;;;;;11.80;3.87;;;;;;;5.68;96.28;102789.25;5096489;28;20080;-35
2021/12/20 02:22:34;;;;;;;14.00;3.17;;;;;;;5.78;96.02;102802.59;5096209;28;20028;-35
2021/12/20 02:24:59;;;;;;;13.75;3.00;;;;;;;5.79;96.75;102804.28;5095718;28;20028;-35
2021/12/20 02:27:25;;;;;;;18.30;3.50;;;;;;;5.71;95.17;102796.16;5095635;28;20023;-35
2021/12/20 02:30:10;;;;;;;22.70;4.53;;;;;;;5.70;93.67;102799.81;5095632;28;20031;-35
2021/12/20 02:38:20;;;;;;;11.00;2.28;;;;;;;5.77;97.13;102781.28;5095525;28;20485;-35
2021/12/20 02:40:46;;;;;;;14.17;2.50;;;;;;;5.75;94.45;102791.31;5095881;28;20040;-35
2021/12/20 02:43:16;;;;;;;14.27;3.10;;;;;;;5.75;95.82;102786.78;5095313;28;20309;-35
2021/12/20 02:45:42;;;;;;;17.45;4.35;;;;;;;5.71;95.00;102795.28;5095333;28;20115;-35
2021/12/20 02:48:08;;;;;;;14.57;3.70;;;;;;;5.68;93.79;102801.81;5095488;28;20359;-35
2021/12/20 02:50:33;;;;;;;18.17;4.00;;;;;;;5.59;91.77;102797.34;5095809;28;20055;-35
2021/12/20 02:52:58;;;;;;;16.67;3.03;;;;;;;5.55;93.48;102780.69;5094837;28;20031;-35
2021/12/20 02:55:24;;;;;;;19.73;3.90;;;;;;;5.65;94.40;102802.13;5095930;28;20020;-35
2021/12/20 02:57:49;;;;;;;11.53;2.77;;;;;;;5.71;95.86;102793.47;5094863;28;20165;-35
2021/12/20 03:00:15;;;;;;;12.63;2.93;;;;;;;5.66;93.97;102787.69;5095329;28;20441;-35
2021/12/20 03:02:40;;;;;;;15.57;3.40;;;;;;;5.70;94.52;102797.13;5095069;28;20457;-35
2021/12/20 03:05:08;;;;;;;15.90;3.37;;;;;;;5.68;94.74;102794.63;5095335;28;20028;-35
2021/12/20 03:07:42;;;;;;;18.48;3.70;;;;;;;5.74;94.63;102800.38;5094758;28;20028;-35
2021/12/20 03:10:09;;;;;;;18.67;4.18;;;;;;;5.66;93.75;102793.06;5094836;28;20032;-35
2021/12/20 03:12:34;;;;;;;13.45;2.97;;;;;;;5.72;95.25;102792.47;5095183;28;20024;-35
2021/12/20 03:15:10;;;;;;;12.47;3.33;;;;;;;5.75;95.60;102802.06;5094502;28;20024;-35
2021/12/20 03:17:36;;;;;;;16.83;3.10;;;;;;;5.67;95.74;102781.34;5095198;28;20038;-35
2021/12/20 03:20:03;;;;;;;13.35;3.35;;;;;;;5.71;95.77;102795.28;5095164;28;20637;-35
2021/12/20 03:22:28;;;;;;;24.92;4.15;;;;;;;5.68;95.08;102791.09;5094556;28;20105;-35
2021/12/20 03:24:54;;;;;;;17.23;3.20;;;;;;;5.69;95.66;102788.25;5094653;28;20448;-35
2021/12/20 03:27:20;;;;;;;24.77;3.80;;;;;;;5.67;94.77;102794.78;5094707;28;20089;-35
2021/12/20 03:29:46;;;;;;;14.32;3.10;;;;;;;5.73;95.98;102796.84;5094460;28;20028;-35
2021/12/20 03:32:11;;;;;;;12.32;3.78;;;;;;;5.70;95.77;102799.81;5095075;28;20028;-35
2021/12/20 03:34:37;;;;;;;17.57;3.50;;;;;;;5.68;95.85;102794.63;5094567;28;20034;-36
2021/12/20 03:37:02;;;;;;;20.37;3.10;;;;;;;5.58;95.14;102790.31;5094276;28;20266;-36
2021/12/20 03:39:27;;;;;;;18.03;3.20;;;;;;;5.68;94.94;102797.28;5094725;28;20024;-36
2021/12/20 03:41:53;;;;;;;15.70;3.03;;;;;;;5.68;96.07;102794.63;5094944;28;20270;-36
2021/12/20 03:44:18;;;;;;;14.57;3.00;;;;;;;5.72;96.20;102792.47;5093994;28;20506;-36
2021/12/20 03:46:44;;;;;;;15.80;3.33;;;;;;;5.69;96.55;102792.78;5094126;28;20111;-36
2021/12/20 03:49:09;;;;;;;16.53;3.10;;;;;;;5.71;95.92;102796.16;5094197;28;20027;-36
2021/12/20 03:51:36;;;;;;;12.43;3.00;;;;;;;5.68;94.65;102791.09;5093980;28;20024;-36
2021/12/20 03:54:02;;;;;;;15.75;3.28;;;;;;;5.60;94.51;102781.09;5094602;28;20536;-36
2021/12/20 03:56:27;;;;;;;;;;;;;;;5.69;95.84;102798.97;5094156;28;20080;-36
2021/12/20 03:58:53;;;;;;;11.23;3.00;;;;;;;5.52;94.12;102788.22;5093829;28;19995;-36
2021/12/20 04:01:19;;;;;;;11.20;2.83;;;;;;;5.38;94.15;102774.31;5094084;28;20035;-36
2021/12/20 04:03:44;;;;;;;18.73;3.38;;;;;;;5.50;92.64;102787.53;5094805;28;20044;-36
2021/12/20 04:06:12;;;;;;;15.55;3.28;;;;;;;5.54;92.59;102794.28;5093361;28;20145;-36
2021/12/20 04:08:39;;;;;;;18.70;3.67;;;;;;;5.49;92.73;102788.53;5094468;28;20035;-36
2021/12/20 04:11:04;;;;;;;10.13;2.78;;;;;;;5.53;93.45;102779.19;5093346;28;20027;-36
2021/12/20 04:13:30;;;;;;;16.33;3.03;;;;;;;5.51;93.55;102786.53;5094091;28;20386;-36
2021/12/20 04:15:56;;;;;;;16.10;3.80;;;;;;;5.30;90.83;102755.44;5093345;28;20081;-36
2021/12/20 04:18:22;;;;;;;15.70;3.25;;;;;;;5.55;93.68;102777.19;5093825;28;20448;-36
2021/12/20 04:20:48;;;;;;;17.35;3.28;;;;;;;5.58;92.77;102782.25;5093350;28;20396;-36
2021/12/20 04:23:13;;;;;;;18.58;3.08;;;;;;;5.53;92.49;102777.34;5093745;28;20034;-36
2021/12/20 04:25:39;;;;;;;19.67;4.07;;;;;;;5.59;92.27;102792.00;5093717;28;20456;-36
2021/12/20 04:28:04;;;;;;;20.83;4.30;;;;;;;5.55;91.02;102795.97;5093072;28;20433;-36
2021/12/20 04:30:31;;;;;;;16.13;3.87;;;;;;;5.51;87.53;102787.34;5093076;28;20027;-36
2021/12/20 04:32:57;;;;;;;18.23;3.53;;;;;;;5.43;88.63;102777.41;5093347;28;20032;-36
2021/12/20 04:35:23;;;;;;;;;;;;;;;5.60;92.28;102799.03;5094414;28;20031;-36
2021/12/20 04:37:49;;;;;;;11.93;2.78;;;;;;;5.47;88.78;102777.94;5093273;28;19961;-36
2021/12/20 04:40:21;;;;;;;15.40;3.47;;;;;;;5.54;87.21;102778.19;5093690;28;20070;-36
2021/12/20 04:42:48;;;;;;;12.45;3.15;;;;;;;5.56;89.12;102778.84;5093753;28;20035;-37
2021/12/20 04:45:14;;;;;;;18.98;3.17;;;;;;;5.52;87.34;102780.19;5093703;28;20443;-36
2021/12/20 04:47:39;;;;;;;13.40;2.90;;;;;;;5.55;89.03;102782.53;5093176;28;20071;-36
2021/12/20 04:50:06;;;;;;;14.60;2.88;;;;;;;5.57;89.46;102784.09;5093527;28;20024;-36
2021/12/20 04:52:31;;;;;;;15.77;3.50;;;;;;;5.47;86.08;102779.78;5092874;28;20039;-36
2021/12/20 04:54:56;;;;;;;15.17;3.90;;;;;;;5.51;85.65;102790.03;5092701;28;20032;-45
2021/12/20 04:57:22;;;;;;;18.50;3.33;;;;;;;5.54;86.94;102786.22;5093114;28;20028;-36
2021/12/20 04:59:47;;;;;;;14.47;3.13;;;;;;;5.59;89.10;102790.16;5093290;28;20028;-36
2021/12/20 05:02:12;;;;;;;14.77;3.10;;;;;;;5.63;90.99;102793.38;5093273;28;20456;-36
2021/12/20 05:04:38;;;;;;;20.20;3.37;;;;;;;5.59;90.34;102789.31;5093769;28;20135;-36
2021/12/20 05:07:03;;;;;;;14.00;3.40;;;;;;;5.51;88.00;102787.34;5092906;28;20118;-36
2021/12/20 05:09:35;;;;;;;13.00;3.63;;;;;;;5.54;90.00;102786.22;5093540;28;20031;-36
2021/12/20 05:12:10;;;;;;;13.68;3.55;;;;;;;5.51;93.08;102783.84;5093101;28;20028;-36
2021/12/20 05:14:35;;;;;;;19.35;4.32;;;;;;;5.52;89.03;102788.22;5093038;28;20028;-36
2021/12/20 05:17:01;;;;;;;15.00;3.60;;;;;;;5.53;90.26;102790.75;5095525;28;20027;-36
2021/12/20 05:19:26;;;;;;;18.13;4.27;;;;;;;5.53;90.24;102792.59;5097262;28;20070;-36
2021/12/20 05:21:52;;;;;;;16.43;3.30;;;;;;;5.51;90.43;102799.94;5096671;28;20020;-36
2021/12/20 05:24:17;;;;;;;22.53;5.13;;;;;;;5.45;90.76;102789.81;5096867;28;20392;-36
2021/12/20 05:26:42;;;;;;;16.97;4.20;;;;;;;5.52;91.35;102797.13;5096513;28;20035;-36
2021/12/20 05:29:08;;;;;;;16.47;3.20;;;;;;;5.59;92.86;102790.16;5097040;28;20024;-36
2021/12/20 05:31:34;;;;;;;18.93;4.87;;;;;;;5.59;92.68;102794.66;5096767;28;20107;-36
2021/12/20 05:34:00;;;;;;;17.58;3.90;;;;;;;5.58;91.46;102803.72;5096740;28;20058;-36
2021/12/20 05:36:25;;;;;;;15.35;3.47;;;;;;;5.49;92.81;102791.19;5096396;28;20476;-36
2021/12/20 05:38:51;;;;;;;13.17;3.40;;;;;;;5.54;91.78;102800.50;5096958;28;20031;-36
2021/12/20 05:41:16;;;;;;;15.67;4.33;;;;;;;5.57;93.48;102796.69;5096679;28;20028;-36
2021/12/20 05:43:41;;;;;;;17.70;3.40;;;;;;;5.52;92.26;102805.19;5097066;28;20016;-36
2021/12/20 05:46:07;;;;;;;12.53;3.10;;;;;;;5.52;91.34;102807.84;5096434;28;20053;-36
2021/12/20 05:48:32;;;;;;;20.33;4.40;;;;;;;5.47;89.17;102806.63;5128911;27;20475;-36
2021/12/20 05:50:57;;;;;;;14.00;3.37;;;;;;;5.49;89.48;102797.41;5096598;28;20387;-36
2021/12/20 05:53:23;;;;;;;13.93;4.00;;;;;;;5.41;86.85;102790.09;5096679;28;20483;-36
2021/12/20 05:55:48;;;;;;;16.50;3.87;;;;;;;5.34;87.59;102785.50;5096313;28;20064;-36
2021/12/20 05:58:13;;;;;;;17.33;3.80;;;;;;;5.38;84.07;102797.63;5096441;28;20028;-36
2021/12/20 06:00:39;;;;;;;17.00;3.47;;;;;;;5.28;85.53;102789.63;5095942;28;20024;-36
2021/12/20 06:03:04;;;;;;;19.50;4.13;;;;;;;5.36;87.65;102802.28;5096508;28;20127;-36
2021/12/20 06:05:30;;;;;;;15.37;3.47;;;;;;;5.35;88.00;102808.63;5096618;28;20063;-36
2021/12/20 06:07:56;;;;;;;15.97;3.37;;;;;;;5.29;87.82;102790.47;5096270;28;20361;-36
2021/12/20 06:10:22;;;;;;;17.90;4.07;;;;;;;5.31;85.16;102800.03;5096227;28;20395;-36
2021/12/20 06:12:47;;;;;;;17.40;3.63;;;;;;;5.39;89.03;102791.25;5095980;28;20115;-36
2021/12/20 06:15:13;;;;;;;17.87;3.47;;;;;;;5.35;88.08;102800.59;5096156;28;20028;-36
2021/12/20 06:17:39;;;;;;;14.77;3.00;;;;;;;5.34;85.76;102793.53;5096351;28;20027;-36
2021/12/20 06:20:08;;;;;;;15.00;3.30;;;;;;;5.30;85.36;102789.47;5095777;28;20396;-36
2021/12/20 06:22:33;;;;;;;14.15;3.38;;;;;;;5.36;83.88;102805.81;5095798;28;20081;-36
2021/12/20 06:24:59;;;;;;;18.27;3.90;;;;;;;5.34;83.65;102821.22;5095807;28;20028;-36
2021/12/20 06:27:25;;;;;;;15.82;3.67;;;;;;;5.30;87.08;102808.25;5094892;28;20039;-36
2021/12/20 06:29:50;;;;;;;15.30;3.37;;;;;;;5.31;87.04;102809.94;5095643;28;20243;-36
2021/12/20 06:32:15;;;;;;;14.20;3.40;;;;;;;5.32;87.01;102815.16;5095608;28;20106;-36
2021/12/20 06:34:40;;;;;;;13.77;2.97;;;;;;;5.30;89.41;102803.72;5096126;28;20098;-36
2021/12/20 06:37:06;;;;;;;17.27;3.90;;;;;;;5.36;87.57;102821.91;5095479;28;20048;-36
2021/12/20 06:39:32;;;;;;;15.07;3.87;;;;;;;5.33;88.35;102813.31;5095461;28;20081;-36
2021/12/20 06:41:57;;;;;;;14.75;3.67;;;;;;;5.34;87.83;102821.22;5095136;28;20073;-36
2021/12/20 06:44:23;;;;;;;16.15;3.30;;;;;;;5.36;88.90;102829.09;5095358;28;20075;-36
2021/12/20 06:46:49;;;;;;;13.13;2.75;;;;;;;5.35;89.13;102827.41;5095316;28;20060;-36
2021/12/20 06:49:15;;;;;;;14.95;2.90;;;;;;;5.43;90.78;102814.97;5095539;28;20035;-36
2021/12/20 06:51:43;;;;;;;16.40;3.00;;;;;;;5.31;90.76;102808.09;5095249;28;20032;-36
2021/12/20 06:54:14;;;;;;;15.32;3.03;;;;;;;5.40;90.11;102835.88;5095180;28;20108;-37
2021/12/20 06:56:40;;;;;;;14.70;3.60;;;;;;;5.32;87.04;102828.56;5095117;28;20020;-34
2021/12/20 06:59:06;;;;;;;13.13;3.25;;;;;;;5.37;90.52;102831.66;5095554;28;20426;-36
2021/12/20 07:01:31;;;;;;;15.13;3.30;;;;;;;5.35;90.05;102835.47;5094529;28;20040;-36
2021/12/20 07:03:57;;;;;;;13.93;3.90;;;;;;;5.29;87.01;102834.22;5095514;28;20032;-35
2021/12/20 07:06:23;;;;;;;16.10;3.97;;;;;;;5.22;86.47;102835.81;5094892;28;20024;-35
2021/12/20 07:08:49;;;;;;;17.02;3.30;;;;;;;5.30;91.03;102846.63;5094982;28;20188;-35
2021/12/20 07:11:14;;;;;;;16.17;3.70;;;;;;;5.22;87.01;102841.19;5094764;28;20119;-35
2021/12/20 07:13:40;;;;;;;19.67;4.40;;;;;;;5.21;86.67;102841.31;5095246;28;20103;-35
2021/12/20 07:16:07;;;;;;;13.52;2.92;;;;;;;5.11;88.19;102825.25;5094708;28;20032;-35
2021/12/20 07:18:32;;;;;;;14.88;2.88;;;;;;;5.24;88.99;102839.19;5095348;28;20421;-35
2021/12/20 07:20:58;;;;;;;18.40;3.58;;;;;;;5.20;89.10;102831.59;5094190;28;20110;-35
2021/12/20 07:23:23;;;;;;;14.83;4.10;;;;;;;5.19;89.90;102821.84;5094757;28;20020;-35
2021/12/20 07:25:50;;;;;;;17.70;3.93;;;;;;;5.38;92.87;102843.22;5095425;28;20020;-35
2021/12/20 07:28:15;;;;;;;12.63;2.95;;;;;;;5.22;88.50;102829.59;5094489;28;20085;-36
2021/12/20 07:30:44;;;;;;;17.50;4.30;;;;;;;5.31;89.90;102848.31;5095226;28;20040;-36
2021/12/20 07:33:09;;;;;;;15.88;2.95;;;;;;;5.36;90.94;102846.03;5094058;28;20024;-36
2021/12/20 07:35:34;;;;;;;14.40;3.43;;;;;;;5.40;91.86;102846.59;5094607;28;20492;-35
2021/12/20 07:38:02;;;;;;;20.50;6.03;;;;;;;5.37;91.64;102844.22;5093904;28;20103;-35
2021/12/20 07:40:27;;;;;;;29.05;12.05;;;;;;;5.40;93.38;102847.44;5093262;28;20032;-36
2021/12/20 07:42:52;;;;;;;47.10;25.00;;;;;;;5.34;91.65;102839.16;5093910;28;20436;-35
2021/12/20 07:45:18;;;;;;;36.27;18.13;;;;;;;5.39;92.51;102837.72;5094420;28;20049;-35
2021/12/20 07:47:44;;;;;;;24.00;8.75;;;;;;;5.33;91.06;102840.16;5094107;28;20435;-35
2021/12/20 07:50:10;;;;;;;15.13;5.30;;;;;;;5.36;91.49;102839.84;5093810;28;20119;-35
2021/12/20 07:52:35;;;;;;;13.50;4.07;;;;;;;5.37;89.37;102853.13;5094039;28;20452;-35
2021/12/20 07:55:02;;;;;;;15.32;3.92;;;;;;;5.29;88.23;102855.69;5093963;28;20105;-35
2021/12/20 07:57:27;;;;;;;;;;;;;;;5.41;90.64;102849.13;5095000;28;20370;-35
2021/12/20 07:59:53;;;;;;;21.70;4.78;;;;;;;5.34;91.51;102853.41;5094288;28;19912;-36
2021/12/20 08:02:18;;;;;;;18.43;5.17;;;;;;;5.39;91.51;102836.88;5093911;28;20043;-35
2021/12/20 08:04:48;;;;;;;27.47;10.30;;;;;;;5.42;90.86;102856.22;5093858;28;20024;-35
2021/12/20 08:07:14;;;;;;;23.10;9.57;;;;;;;5.43;90.26;102844.47;5093474;28;20028;-35
2021/12/20 08:09:39;;;;;;;20.97;7.53;;;;;;;5.32;90.23;102838.44;5094187;28;20035;-35
2021/12/20 08:12:06;;;;;;;21.23;5.28;;;;;;;5.37;89.01;102858.50;5093536;28;20027;-35
2021/12/20 08:14:31;;;;;;;16.40;5.90;;;;;;;5.36;90.62;102850.56;5093822;28;20032;-35
2021/12/20 08:16:56;;;;;;;18.80;5.40;;;;;;;5.32;91.86;102849.16;5093327;28;20024;-35
2021/12/20 08:19:21;;;;;;;20.43;7.80;;;;;;;5.44;92.08;102861.41;5093609;28;20107;-35
2021/12/20 08:21:47;;;;;;;42.33;16.20;;;;;;;5.35;90.31;102854.25;5093477;28;20032;-35
2021/12/20 08:24:12;;;;;;;29.30;12.47;;;;;;;5.43;91.91;102860.56;5093789;28;20112;-35
2021/12/20 08:26:37;;;;;;;23.80;8.97;;;;;;;5.17;90.74;102832.72;5093620;28;20115;-36
2021/12/20 08:29:03;;;;;;;21.33;6.43;;;;;;;5.38;90.53;102865.53;5093702;28;20414;-35
2021/12/20 08:31:28;;;;;;;20.50;7.30;;;;;;;5.36;90.34;102863.97;5093374;28;20482;-35
2021/12/20 08:33:54;;;;;;;36.37;19.20;;;;;;;5.41;90.82;102859.84;5093026;28;20020;-35
2021/12/20 08:36:20;;;;;;;32.72;11.18;;;;;;;5.31;90.16;102859.06;5093040;28;20020;-35
2021/12/20 08:38:45;;;;;;;24.10;7.37;;;;;;;5.41;88.67;102862.53;5093221;28;20101;-36
2021/12/20 08:41:13;;;;;;;22.08;4.72;;;;;;;5.41;87.49;102864.38;5093243;28;20140;-35
2021/12/20 08:43:40;;;;;;;16.27;4.78;;;;;;;5.45;87.96;102867.63;5092921;28;20028;-35
2021/12/20 08:46:05;;;;;;;14.48;2.90;;;;;;;5.48;87.98;102865.50;5092662;28;20024;-35
2021/12/20 08:48:31;;;;;;;19.10;4.20;;;;;;;5.40;87.27;102863.53;5093543;28;20032;-36
2021/12/20 08:50:58;;;;;;;17.38;5.78;;;;;;;5.46;88.03;102872.84;5092455;28;20032;-36
2021/12/20 08:53:23;;;;;;;21.05;5.05;;;;;;;5.27;85.20;102851.44;5093192;28;20439;-36
2021/12/20 08:55:49;;;;;;;16.30;6.03;;;;;;;5.35;86.23;102849.72;5093125;28;20028;-36
2021/12/20 08:58:14;;;;;;;15.37;4.60;;;;;;;5.36;87.45;102863.97;5092938;28;20456;-36
2021/12/20 09:00:40;;;;;;;18.20;3.53;;;;;;;5.41;88.32;102870.59;5091570;28;20035;-36
2021/12/20 09:03:06;;;;;;;18.77;3.80;;;;;;;5.51;88.98;102877.75;5093391;28;20129;-36
2021/12/20 09:05:34;;;;;;;16.63;3.47;;;;;;;5.45;86.75;102875.66;5093168;28;20063;-36
2021/12/20 09:08:02;;;;;;;16.98;3.65;;;;;;;5.38;86.41;102865.53;5092935;28;20035;-36
2021/12/20 09:10:31;;;;;;;12.35;2.90;;;;;;;5.30;86.88;102841.28;5092852;28;20028;-36
2021/12/20 09:12:57;;;;;;;17.80;3.58;;;;;;;5.46;87.13;102861.25;5093380;28;20056;-36
2021/12/20 09:15:22;;;;;;;21.15;4.75;;;;;;;5.54;87.84;102880.16;5093325;28;20059;-36
2021/12/20 09:17:52;;;;;;;10.33;3.07;;;;;;;5.52;87.27;102880.31;5093441;28;20024;-36
2021/12/20 09:20:21;;;;;;;20.75;3.65;;;;;;;5.50;86.65;102892.19;5092945;28;20036;-36
2021/12/20 09:22:53;;;;;;;10.98;2.70;;;;;;;5.57;88.34;102877.19;5092928;28;20097;-36
2021/12/20 09:25:21;;;;;;;14.40;3.28;;;;;;;5.55;87.03;102887.22;5092644;28;20060;-35
2021/12/20 09:27:47;;;;;;;14.52;2.78;;;;;;;5.67;88.13;102886.03;5093039;28;20123;-35
2021/12/20 09:30:13;;;;;;;14.68;3.10;;;;;;;5.69;88.87;102886.72;5092606;28;20109;-36
2021/12/20 09:32:38;;;;;;;;;;;;;;;5.73;87.07;102893.50;5093072;28;20441;-35
2021/12/20 09:35:04;;;;;;;17.02;2.67;;;;;;;5.68;87.45;102885.03;5092528;28;19962;-36
2021/12/20 09:37:29;;;;;;;14.32;3.45;;;;;;;5.73;87.45;102885.44;5093243;28;20026;-35
2021/12/20 09:39:55;;;;;;;18.50;4.03;;;;;;;5.75;88.29;102891.47;5092319;28;20040;-35
2021/12/20 09:42:22;;;;;;;13.40;3.05;;;;;;;5.80;87.33;102894.56;5092258;28;20469;-35
2021/12/20 09:44:48;;;;;;;14.50;4.10;;;;;;;5.80;87.80;102896.41;5092638;28;20165;-35
2021/12/20 09:47:14;;;;;;;20.60;5.35;;;;;;;5.71;84.84;102906.22;5093126;28;20119;-35
2021/12/20 09:49:40;;;;;;;16.45;3.40;;;;;;;5.74;87.09;102900.53;5093089;28;20054;-35
2021/12/20 09:52:05;;;;;;;11.95;3.60;;;;;;;5.71;87.38;102895.50;5092164;28;20035;-35
2021/12/20 09:54:31;;;;;;;10.40;2.63;;;;;;;5.89;89.86;102890.97;5092671;28;20039;-35
2021/12/20 09:56:58;;;;;;;18.42;3.47;;;;;;;5.84;86.73;102898.66;5092154;28;20067;-35
2021/12/20 09:59:27;;;;;;;20.20;3.90;;;;;;;5.84;86.06;102906.69;5092655;28;20028;-36
2021/12/20 10:01:53;;;;;;;14.73;3.05;;;;;;;5.88;87.28;102905.41;5092281;28;20050;-35
2021/12/20 10:04:20;;;;;;;14.35;3.17;;;;;;;5.87;86.38;102903.72;5095520;28;20353;-35
2021/12/20 10:06:51;;;;;;;18.15;3.22;;;;;;;5.87;85.96;102902.88;5096075;28;20382;-35
2021/12/20 10:09:17;;;;;;;12.23;2.78;;;;;;;5.89;87.16;102885.63;5096005;28;20479;-35
2021/12/20 10:11:43;;;;;;;12.18;2.95;;;;;;;5.83;85.69;102891.59;5096368;28;20071;-35
2021/12/20 10:14:16;;;;;;;15.63;3.13;;;;;;;5.80;85.84;102907.16;5096442;28;20123;-35
2021/12/20 10:16:44;;;;;;;13.30;3.65;;;;;;;5.74;85.39;102892.50;5096407;28;20379;-35
2021/12/20 10:19:34;;;;;;;11.48;3.58;;;;;;;5.86;86.87;102904.72;5094890;28;20050;-35
2021/12/20 10:22:01;;;;;;;18.83;3.38;;;;;;;5.79;87.08;102886.66;5096160;28;20016;-36
2021/12/20 10:24:33;;;;;;;11.85;3.53;;;;;;;5.92;87.48;102901.47;5095853;28;20062;-36
2021/12/20 10:26:59;;;;;;;17.00;3.72;;;;;;;5.92;86.74;102900.63;5095975;28;20107;-36
2021/12/20 10:29:24;;;;;;;16.02;3.58;;;;;;;5.92;87.43;102890.72;5095692;28;20063;-36
2021/12/20 10:31:50;;;;;;;15.35;3.55;;;;;;;6.03;86.97;102897.72;5094367;28;20036;-35
2021/12/20 10:34:19;;;;;;;22.55;4.00;;;;;;;6.04;86.37;102898.56;5095808;28;20073;-35
2021/12/20 10:36:57;;;;;;;12.55;3.00;;;;;;;5.92;85.91;102871.09;5096206;28;20016;-35
2021/12/20 10:39:44;;;;;;;13.98;3.10;;;;;;;6.07;85.86;102891.06;5095891;28;20325;-35
2021/12/20 10:42:22;;;;;;;12.45;3.53;;;;;;;6.07;85.96;102890.22;5095641;28;20101;-35
2021/12/20 10:45:14;;;;;;;14.73;3.08;;;;;;;6.09;86.39;102897.13;5095595;28;20349;-36
2021/12/20 10:47:43;;;;;;;13.73;3.28;;;;;;;6.10;85.96;102908.69;5095365;28;20028;-35
2021/12/20 10:50:21;;;;;;;12.85;3.05;;;;;;;6.16;86.55;102902.75;5096406;28;20055;-36
2021/12/20 10:52:46;;;;;;;17.30;4.28;;;;;;;6.17;85.26;102904.44;5095219;28;20108;-35
2021/12/20 10:55:12;;;;;;;14.32;3.97;;;;;;;6.09;84.45;102886.38;5094982;28;20046;-35
2021/12/20 10:57:37;;;;;;;13.17;3.47;;;;;;;6.08;83.66;102891.91;5095795;28;20089;-36
2021/12/20 11:00:15;;;;;;;13.70;3.00;;;;;;;6.08;85.13;102883.84;5095050;28;20024;-35
2021/12/20 11:03:35;;;;;;;12.48;3.22;;;;;;;6.09;84.54;102890.91;5094987;28;20059;-35
2021/12/20 11:06:13;;;;;;;12.65;3.10;;;;;;;6.02;85.08;102879.94;5093705;27;20101;-35
2021/12/20 11:11:23;;;;;;;13.93;3.40;;;;;;;6.13;83.77;102894.97;5094913;28;20042;-35
2021/12/20 11:13:48;;;;;;;9.95;3.00;;;;;;;6.20;84.31;102901.44;5095109;28;20107;-35
2021/12/20 11:16:27;;;;;;;18.33;3.37;;;;;;;6.27;85.73;102890.94;5095501;28;20032;-35
2021/12/20 11:19:11;;;;;;;16.67;3.83;;;;;;;6.27;83.63;102881.03;5094661;28;20454;-36
2021/12/20 11:21:44;;;;;;;14.30;3.63;;;;;;;6.21;83.22;102873.59;5094821;28;20028;-36
2021/12/20 11:24:16;;;;;;;16.92;3.33;;;;;;;6.19;82.48;102878.25;5094939;28;20102;-36
2021/12/20 11:26:41;;;;;;;15.02;3.25;;;;;;;6.22;81.90;102886.00;5094548;28;20032;-36
2021/12/20 11:29:08;;;;;;;15.50;3.73;;;;;;;6.23;81.35;102879.63;5094584;28;20043;-36
2021/12/20 11:31:33;;;;;;;14.55;2.60;;;;;;;6.34;83.96;102881.25;5094653;28;20113;-35
2021/12/20 11:34:02;;;;;;;12.77;3.67;;;;;;;6.35;84.19;102885.66;5095086;28;20024;-35
2021/12/20 11:36:29;;;;;;;13.02;2.78;;;;;;;6.30;83.22;102880.72;5094132;28;20024;-35
2021/12/20 11:38:58;;;;;;;14.13;3.47;;;;;;;6.21;83.12;102873.59;5095063;28;20020;-36